Terminal Aerodrome Forecast
Issued by NWS Sterling, VA

Current Version | Previous Version | Text Only | Print | Product List | Glossary On
Versions: 1 2 3 4 5 6 7 8 9 10 11 12 13 14 15 16 17 18 19
000
FTUS41 KLWX 240500
TAFMRB
TAF
KMRB 240524Z 2406/2506 31008KT P6SM FEW200
     FM241300 31012G20KT P6SM SCT250
     FM242300 30006KT P6SM SCT200=

USA.gov is the U.S. government's official web portal to all federal, state and local government web resources and services.